Time;durP1;ratioP1;P1;durP2;ratioP2;P2;SDS_P1;SDS_P2;PMS_P1;PMS_P2;Temp;Humidity;BMP_temperature;BMP_pressure;BME280_temperature;BME280_humidity;BME280_pressure;Samples;Min_cycle;Max_cycle;Signal;HPM_P1;HPM_P2
2023/02/07 00:00:25;;;;;;;;;;;;;;;;;;6308828;22;20337;-78
2023/02/07 00:02:51;;;;;;;;;;;;;;;;;;6281971;22;19954;-78
2023/02/07 00:05:16;;;;;;;;;;;;;;;;;;6281915;22;19914;-78
2023/02/07 00:07:41;;;;;;;;;;;;;;;;;;6310400;22;20329;-79
2023/02/07 00:10:07;;;;;;;;;;;;;;;;;;6309890;22;19907;-79
2023/02/07 00:12:32;;;;;;;;;;;;;;;;;;6310940;22;20339;-78
2023/02/07 00:14:58;;;;;;;;;;;;;;;;;;6311574;22;19911;-79
2023/02/07 00:17:23;;;;;;;;;;;;;;;;;;6314411;22;19984;-79
2023/02/07 00:19:48;;;;;;;;;;;;;;;;;;6316985;22;19910;-79
2023/02/07 00:22:14;;;;;;;;;;;;;;;;;;6319482;22;20344;-77
2023/02/07 00:24:39;;;;;;;;;;;;;;;;;;6329096;22;19912;-78
2023/02/07 00:27:04;;;;;;;;;;;;;;;;;;6330121;22;19906;-77
2023/02/07 00:29:31;;;;;;;;;;;;;;;;;;6326177;22;20229;-80
2023/02/07 00:31:56;;;;;;;;;;;;;;;;;;6285587;22;19910;-79
2023/02/07 00:34:22;;;;;;;;;;;;;;;;;;6312659;22;19935;-79
2023/02/07 00:36:47;;;;;;;;;;;;;;;;;;6312639;22;19913;-77
2023/02/07 00:39:12;;;;;;;;;;;;;;;;;;6259135;22;19914;-79
2023/02/07 00:41:38;;;;;;;;;;;;;;;;;;6283041;22;19934;-79
2023/02/07 00:44:03;;;;;;;;;;;;;;;;;;6282133;22;19913;-78
2023/02/07 00:46:29;;;;;;;;;;;;;;;;;;6306369;22;20317;-79
2023/02/07 00:48:54;;;;;;;;;;;;;;;;;;6307545;22;19911;-78
2023/02/07 00:51:19;;;;;;;;;;;;;;;;;;6279979;22;19989;-79
2023/02/07 00:53:46;;;;;;;;;;;;;;;;;;6280066;22;20364;-77
2023/02/07 00:56:12;;;;;;;;;;;;;;;;;;6279465;22;19907;-78
2023/02/07 00:58:37;;;;;;;;;;;;;;;;;;6307115;22;19913;-78
2023/02/07 01:01:03;;;;;;;;;;;;;;;;;;6307193;22;19941;-78
2023/02/07 01:03:28;;;;;;;;;;;;;;;;;;6280622;22;19914;-77
2023/02/07 01:05:54;;;;;;;;;;;;;;;;;;6279452;22;20485;-77
2023/02/07 01:08:19;;;;;;;;;;;;;;;;;;6280527;22;19914;-78
2023/02/07 01:10:45;;;;;;;;;;;;;;;;;;6309098;22;20349;-78
2023/02/07 01:13:10;;;;;;;;;;;;;;;;;;6282814;22;19914;-80
2023/02/07 01:15:36;;;;;;;;;;;;;;;;;;6309770;22;20279;-78
2023/02/07 01:18:01;;;;;;;;;;;;;;;;;;6282852;22;19917;-79
2023/02/07 01:20:26;;;;;;;;;;;;;;;;;;6258110;22;19914;-79
2023/02/07 01:22:52;;;;;;;;;;;;;;;;;;6311488;22;20333;-79
2023/02/07 01:25:18;;;;;;;;;;;;;;;;;;6283590;22;19914;-80
2023/02/07 01:27:43;;;;;;;;;;;;;;;;;;6309908;22;19907;-78
2023/02/07 01:30:09;;;;;;;;;;;;;;;;;;6281971;22;19922;-78
2023/02/07 01:32:34;;;;;;;;;;;;;;;;;;6309481;22;19918;-79
2023/02/07 01:35:00;;;;;;;;;;;;;;;;;;6281835;22;19932;-78
2023/02/07 01:37:26;;;;;;;;;;;;;;;;;;6311191;22;19977;-79
2023/02/07 01:39:51;;;;;;;;;;;;;;;;;;6297036;22;20252;-80
2023/02/07 01:42:16;;;;;;;;;;;;;;;;;;6292767;22;19911;-79
2023/02/07 01:44:42;;;;;;;;;;;;;;;;;;6269532;22;19907;-80
2023/02/07 01:47:07;;;;;;;;;;;;;;;;;;6265121;22;19914;-79
2023/02/07 01:49:32;;;;;;;;;;;;;;;;;;6289497;22;20063;-79
2023/02/07 01:51:58;;;;;;;;;;;;;;;;;;6315503;22;19911;-80
2023/02/07 01:54:30;;;;;;;;;;;;;;;;;;6286006;22;19918;-79
2023/02/07 01:56:56;;;;;;;;;;;;;;;;;;6285651;22;20036;-79
2023/02/07 01:59:23;;;;;;;;;;;;;;;;;;6284721;22;19903;-79
2023/02/07 02:01:49;;;;;;;;;;;;;;;;;;6312829;22;19930;-79
2023/02/07 02:04:16;;;;;;;;;;;;;;;;;;6284682;22;19969;-78
2023/02/07 02:06:41;;;;;;;;;;;;;;;;;;6285504;22;19950;-78
2023/02/07 02:09:07;;;;;;;;;;;;;;;;;;6284654;22;19911;-79
2023/02/07 02:11:33;;;;;;;;;;;;;;;;;;6312128;22;19911;-79
2023/02/07 02:13:58;;;;;;;;;;;;;;;;;;6287876;22;19907;-78
2023/02/07 02:16:24;;;;;;;;;;;;;;;;;;6311043;22;19915;-77
2023/02/07 02:18:49;;;;;;;;;;;;;;;;;;6311838;22;19914;-79
2023/02/07 02:21:18;;;;;;;;;;;;;;;;;;6284091;22;19907;-79
2023/02/07 02:23:43;;;;;;;;;;;;;;;;;;6310030;22;19907;-77
2023/02/07 02:26:09;;;;;;;;;;;;;;;;;;6280817;22;19907;-78
2023/02/07 02:28:35;;;;;;;;;;;;;;;;;;6281757;22;19903;-79
2023/02/07 02:31:01;;;;;;;;;;;;;;;;;;6281727;22;19989;-79
2023/02/07 02:33:28;;;;;;;;;;;;;;;;;;6281660;22;19907;-79
2023/02/07 02:35:53;;;;;;;;;;;;;;;;;;6280821;22;19956;-78
2023/02/07 02:38:19;;;;;;;;;;;;;;;;;;6308738;22;19906;-79
2023/02/07 02:40:44;;;;;;;;;;;;;;;;;;6281963;22;19910;-78
2023/02/07 02:43:10;;;;;;;;;;;;;;;;;;6281088;22;19907;-78
2023/02/07 02:45:35;;;;;;;;;;;;;;;;;;6308845;22;19945;-78
2023/02/07 02:48:01;;;;;;;;;;;;;;;;;;6256787;22;19957;-77
2023/02/07 02:50:26;;;;;;;;;;;;;;;;;;6282929;22;19907;-79
2023/02/07 02:52:51;;;;;;;;;;;;;;;;;;6281557;22;19910;-78
2023/02/07 02:55:21;;;;;;;;;;;;;;;;;;6280787;22;19907;-77
2023/02/07 02:57:48;;;;;;;;;;;;;;;;;;6229207;22;19907;-77
2023/02/07 03:00:14;;;;;;;;;;;;;;;;;;6280885;22;20333;-79
2023/02/07 03:02:39;;;;;;;;;;;;;;;;;;6281040;22;20004;-79
2023/02/07 03:05:04;;;;;;;;;;;;;;;;;;6308144;22;19906;-79
2023/02/07 03:07:30;;;;;;;;;;;;;;;;;;6307905;22;19907;-77
2023/02/07 03:09:55;;;;;;;;;;;;;;;;;;6255085;22;19910;-78
2023/02/07 03:12:21;;;;;;;;;;;;;;;;;;6254744;22;19911;-77
2023/02/07 03:14:46;;;;;;;;;;;;;;;;;;6306948;22;20386;-78
2023/02/07 03:17:12;;;;;;;;;;;;;;;;;;6254608;22;19953;-78
2023/02/07 03:19:37;;;;;;;;;;;;;;;;;;6280548;22;19914;-79
2023/02/07 03:22:04;;;;;;;;;;;;;;;;;;6254859;22;19907;-77
2023/02/07 03:24:29;;;;;;;;;;;;;;;;;;6280321;22;20240;-78
2023/02/07 03:26:55;;;;;;;;;;;;;;;;;;6280171;22;19907;-79
2023/02/07 03:29:20;;;;;;;;;;;;;;;;;;6229706;22;19938;-76
2023/02/07 03:31:46;;;;;;;;;;;;;;;;;;6279476;22;19993;-78
2023/02/07 03:34:11;;;;;;;;;;;;;;;;;;6280427;22;19913;-78
2023/02/07 03:36:36;;;;;;;;;;;;;;;;;;6307238;22;19907;-78
2023/02/07 03:39:02;;;;;;;;;;;;;;;;;;6280376;22;19953;-77
2023/02/07 03:41:27;;;;;;;;;;;;;;;;;;6280590;22;19911;-78
2023/02/07 03:43:53;;;;;;;;;;;;;;;;;;6254956;22;19914;-79
2023/02/07 03:46:18;;;;;;;;;;;;;;;;;;6307775;22;19907;-77
2023/02/07 03:48:43;;;;;;;;;;;;;;;;;;6280709;22;19918;-77
2023/02/07 03:51:09;;;;;;;;;;;;;;;;;;6254742;22;20240;-79
2023/02/07 03:53:34;;;;;;;;;;;;;;;;;;6307665;22;19915;-78
2023/02/07 03:56:00;;;;;;;;;;;;;;;;;;6280363;22;19961;-78
2023/02/07 03:58:25;;;;;;;;;;;;;;;;;;6280442;22;19907;-79
2023/02/07 04:00:50;;;;;;;;;;;;;;;;;;6308371;22;19907;-78
2023/02/07 04:03:16;;;;;;;;;;;;;;;;;;6280284;22;19918;-77
2023/02/07 04:05:41;;;;;;;;;;;;;;;;;;6281028;22;19914;-77
2023/02/07 04:08:07;;;;;;;;;;;;;;;;;;6284234;22;19907;-78
2023/02/07 04:10:32;;;;;;;;;;;;;;;;;;6281208;22;19968;-80
2023/02/07 04:12:57;;;;;;;;;;;;;;;;;;6280656;22;20236;-78
2023/02/07 04:15:23;;;;;;;;;;;;;;;;;;6280160;22;19914;-77
2023/02/07 04:17:48;;;;;;;;;;;;;;;;;;6229826;22;19936;-76
2023/02/07 04:20:14;;;;;;;;;;;;;;;;;;6280640;22;20207;-76
2023/02/07 04:22:39;;;;;;;;;;;;;;;;;;6280601;22;20248;-76
2023/02/07 04:25:04;;;;;;;;;;;;;;;;;;6257505;22;19933;-76
2023/02/07 04:27:30;;;;;;;;;;;;;;;;;;6282460;22;19938;-78
2023/02/07 04:29:56;;;;;;;;;;;;;;;;;;6311269;22;19911;-77
2023/02/07 04:32:21;;;;;;;;;;;;;;;;;;6286851;22;19910;-77
2023/02/07 04:34:46;;;;;;;;;;;;;;;;;;6319350;22;19929;-79
2023/02/07 04:37:12;;;;;;;;;;;;;;;;;;6316807;22;19907;-77
2023/02/07 04:39:37;;;;;;;;;;;;;;;;;;6259937;22;19907;-78
2023/02/07 04:42:03;;;;;;;;;;;;;;;;;;6313085;22;20351;-78
2023/02/07 04:44:28;;;;;;;;;;;;;;;;;;6310309;22;19903;-76
2023/02/07 04:46:53;;;;;;;;;;;;;;;;;;6309214;22;20240;-79
2023/02/07 04:49:19;;;;;;;;;;;;;;;;;;6281536;22;19956;-78
2023/02/07 04:51:44;;;;;;;;;;;;;;;;;;6255373;22;19989;-79
2023/02/07 04:54:10;;;;;;;;;;;;;;;;;;6254869;22;19918;-77
2023/02/07 04:56:35;;;;;;;;;;;;;;;;;;6280085;22;19907;-78
2023/02/07 04:59:00;;;;;;;;;;;;;;;;;;6307735;22;19907;-79
2023/02/07 05:01:26;;;;;;;;;;;;;;;;;;6255007;22;19923;-76
2023/02/07 05:03:51;;;;;;;;;;;;;;;;;;6307687;22;19907;-78
2023/02/07 05:06:16;;;;;;;;;;;;;;;;;;6307477;22;20277;-77
2023/02/07 05:08:42;;;;;;;;;;;;;;;;;;6280031;22;19906;-78
2023/02/07 05:11:07;;;;;;;;;;;;;;;;;;6280707;22;20252;-78
2023/02/07 05:13:32;;;;;;;;;;;;;;;;;;6280862;22;19911;-78
2023/02/07 05:15:58;;;;;;;;;;;;;;;;;;6306698;22;19913;-77
2023/02/07 05:18:23;;;;;;;;;;;;;;;;;;6307475;22;20248;-79
2023/02/07 05:20:49;;;;;;;;;;;;;;;;;;6280750;22;19938;-79
2023/02/07 05:23:14;;;;;;;;;;;;;;;;;;6285450;22;19911;-78
2023/02/07 05:25:39;;;;;;;;;;;;;;;;;;6313430;22;19914;-79
2023/02/07 05:28:05;;;;;;;;;;;;;;;;;;6289352;22;19929;-79
2023/02/07 05:30:30;;;;;;;;;;;;;;;;;;6290835;22;19907;-78
2023/02/07 05:33:02;;;;;;;;;;;;;;;;;;6270739;22;19986;-78
2023/02/07 05:35:27;;;;;;;;;;;;;;;;;;6292345;22;19906;-78
2023/02/07 05:37:53;;;;;;;;;;;;;;;;;;6295063;22;19930;-79
2023/02/07 05:40:18;;;;;;;;;;;;;;;;;;6323120;22;19914;-78
2023/02/07 05:42:44;;;;;;;;;;;;;;;;;;6294943;22;19986;-78
2023/02/07 05:45:09;;;;;;;;;;;;;;;;;;6290281;22;19907;-78
2023/02/07 05:47:34;;;;;;;;;;;;;;;;;;6281709;22;20264;-79
2023/02/07 05:50:00;;;;;;;;;;;;;;;;;;6309070;22;19903;-78
2023/02/07 05:52:25;;;;;;;;;;;;;;;;;;6281234;22;19911;-78
2023/02/07 05:54:50;;;;;;;;;;;;;;;;;;6281655;22;19906;-77
2023/02/07 05:57:16;;;;;;;;;;;;;;;;;;6282647;22;19953;-77
2023/02/07 05:59:41;;;;;;;;;;;;;;;;;;6305676;22;19919;-77
2023/02/07 06:02:07;;;;;;;;;;;;;;;;;;6284406;22;20322;-76
2023/02/07 06:04:32;;;;;;;;;;;;;;;;;;6285400;22;19914;-77
2023/02/07 06:06:58;;;;;;;;;;;;;;;;;;6313143;22;19938;-76
2023/02/07 06:09:23;;;;;;;;;;;;;;;;;;6285005;22;20386;-77
2023/02/07 06:11:48;;;;;;;;;;;;;;;;;;6283598;22;19911;-77
2023/02/07 06:14:14;;;;;;;;;;;;;;;;;;6284434;22;20332;-77
2023/02/07 06:16:39;;;;;;;;;;;;;;;;;;6310862;22;19907;-76
2023/02/07 06:19:04;;;;;;;;;;;;;;;;;;6284531;22;19949;-78
2023/02/07 06:21:30;;;;;;;;;;;;;;;;;;6284816;22;20288;-76
2023/02/07 06:23:55;;;;;;;;;;;;;;;;;;6286054;22;19907;-77
2023/02/07 06:26:20;;;;;;;;;;;;;;;;;;6310827;22;20252;-77
2023/02/07 06:28:46;;;;;;;;;;;;;;;;;;6312599;22;19930;-77
2023/02/07 06:31:11;;;;;;;;;;;;;;;;;;6312455;22;20333;-77
2023/02/07 06:33:37;;;;;;;;;;;;;;;;;;6313718;22;19918;-77
2023/02/07 06:36:02;;;;;;;;;;;;;;;;;;6257364;22;19914;-77
2023/02/07 06:38:28;;;;;;;;;;;;;;;;;;6311629;22;19907;-77
2023/02/07 06:40:53;;;;;;;;;;;;;;;;;;6311418;22;19906;-77
2023/02/07 06:43:19;;;;;;;;;;;;;;;;;;6282080;22;19934;-77
2023/02/07 06:45:44;;;;;;;;;;;;;;;;;;6310484;22;20408;-77
2023/02/07 06:48:10;;;;;;;;;;;;;;;;;;6283357;22;19907;-78
2023/02/07 06:50:35;;;;;;;;;;;;;;;;;;6310428;22;19907;-77
2023/02/07 06:53:01;;;;;;;;;;;;;;;;;;6309599;22;19922;-77
2023/02/07 06:55:26;;;;;;;;;;;;;;;;;;6282085;22;20332;-77
2023/02/07 06:57:51;;;;;;;;;;;;;;;;;;6310965;22;19907;-77
2023/02/07 07:00:17;;;;;;;;;;;;;;;;;;6276875;22;19915;-77
2023/02/07 07:02:42;;;;;;;;;;;;;;;;;;6281894;22;20329;-78
2023/02/07 07:05:08;;;;;;;;;;;;;;;;;;6309353;22;19907;-77
2023/02/07 07:07:33;;;;;;;;;;;;;;;;;;6282320;22;20225;-77
2023/02/07 07:09:59;;;;;;;;;;;;;;;;;;6283471;22;19914;-76
2023/02/07 07:12:24;;;;;;;;;;;;;;;;;;6310551;22;19911;-76
2023/02/07 07:14:49;;;;;;;;;;;;;;;;;;6308392;22;20340;-77
2023/02/07 07:17:17;;;;;;;;;;;;;;;;;;6282197;22;19985;-77
2023/02/07 07:19:43;;;;;;;;;;;;;;;;;;6310013;22;19956;-78
2023/02/07 07:22:08;;;;;;;;;;;;;;;;;;6282205;22;19952;-78
2023/02/07 07:24:33;;;;;;;;;;;;;;;;;;6258330;22;19929;-77
2023/02/07 07:26:59;;;;;;;;;;;;;;;;;;6311323;22;19945;-77
2023/02/07 07:29:24;;;;;;;;;;;;;;;;;;6283963;22;19907;-77
2023/02/07 07:31:49;;;;;;;;;;;;;;;;;;6283882;22;19964;-78
2023/02/07 07:34:15;;;;;;;;;;;;;;;;;;6258446;22;19927;-77
2023/02/07 07:36:40;;;;;;;;;;;;;;;;;;6312555;22;20388;-79
2023/02/07 07:39:07;;;;;;;;;;;;;;;;;;6285783;22;20389;-80
2023/02/07 07:41:33;;;;;;;;;;;;;;;;;;6312739;22;19907;-81
2023/02/07 07:44:01;;;;;;;;;;;;;;;;;;6283844;22;19907;-77
2023/02/07 07:46:26;;;;;;;;;;;;;;;;;;6309678;22;19938;-81
2023/02/07 07:48:52;;;;;;;;;;;;;;;;;;6317488;22;19907;-81
2023/02/07 07:51:17;;;;;;;;;;;;;;;;;;6314575;22;19921;-80
2023/02/07 07:53:43;;;;;;;;;;;;;;;;;;6313148;22;19960;-80
2023/02/07 07:56:09;;;;;;;;;;;;;;;;;;6284954;22;20336;-80
2023/02/07 07:58:34;;;;;;;;;;;;;;;;;;6262926;22;20294;-80
2023/02/07 08:00:59;;;;;;;;;;;;;;;;;;6293075;22;19911;-80
2023/02/07 08:03:25;;;;;;;;;;;;;;;;;;6259537;22;20271;-80
2023/02/07 08:05:50;;;;;;;;;;;;;;;;;;6259350;22;19927;-81
2023/02/07 08:08:16;;;;;;;;;;;;;;;;;;6291067;22;19965;-80
2023/02/07 08:10:41;;;;;;;;;;;;;;;;;;6238981;22;19914;-81
2023/02/07 08:13:07;;;;;;;;;;;;;;;;;;6261906;22;19915;-80
2023/02/07 08:15:32;;;;;;;;;;;;;;;;;;6290955;22;19907;-81
2023/02/07 08:17:58;;;;;;;;;;;;;;;;;;6238344;22;20205;-81
2023/02/07 08:20:23;;;;;;;;;;;;;;;;;;6235005;22;19957;-81
2023/02/07 08:22:49;;;;;;;;;;;;;;;;;;6234227;22;19908;-79
2023/02/07 08:25:15;;;;;;;;;;;;;;;;;;6232283;22;20329;-81
2023/02/07 08:27:41;;;;;;;;;;;;;;;;;;6237155;22;19908;-80
2023/02/07 08:30:06;;;;;;;;;;;;;;;;;;6211877;22;19951;-80
2023/02/07 08:32:32;;;;;;;;;;;;;;;;;;6236928;22;19911;-80
2023/02/07 08:34:57;;;;;;;;;;;;;;;;;;6288003;22;19912;-80
2023/02/07 08:37:23;;;;;;;;;;;;;;;;;;6260111;22;19911;-81
2023/02/07 08:39:51;;;;;;;;;;;;;;;;;;6206950;22;19927;-80
2023/02/07 08:42:17;;;;;;;;;;;;;;;;;;6259091;22;19907;-78
2023/02/07 08:44:42;;;;;;;;;;;;;;;;;;6265918;22;19955;-80
2023/02/07 08:47:08;;;;;;;;;;;;;;;;;;6246931;22;19907;-79
2023/02/07 08:49:33;;;;;;;;;;;;;;;;;;6266183;22;19915;-80
2023/02/07 08:51:58;;;;;;;;;;;;;;;;;;6268944;22;20221;-80
2023/02/07 08:54:24;;;;;;;;;;;;;;;;;;6255727;22;19911;-80
2023/02/07 08:56:49;;;;;;;;;;;;;;;;;;6255099;22;19908;-80
2023/02/07 08:59:15;;;;;;;;;;;;;;;;;;6281109;22;19960;-79
2023/02/07 09:01:40;;;;;;;;;;;;;;;;;;6281908;22;19907;-80
2023/02/07 09:04:06;;;;;;;;;;;;;;;;;;6286474;22;20363;-81
2023/02/07 09:06:38;;;;;;;;;;;;;;;;;;6269105;22;20317;-83
2023/02/07 09:09:10;;;;;;;;;;;;;;;;;;6285396;22;19918;-80
2023/02/07 09:11:35;;;;;;;;;;;;;;;;;;6250176;22;19950;-81
2023/02/07 09:14:01;;;;;;;;;;;;;;;;;;6278589;22;19903;-81
2023/02/07 09:16:26;;;;;;;;;;;;;;;;;;6250735;22;19907;-81
2023/02/07 09:18:51;;;;;;;;;;;;;;;;;;6277513;22;19907;-81
2023/02/07 09:21:17;;;;;;;;;;;;;;;;;;6278479;22;19942;-77
2023/02/07 09:23:42;;;;;;;;;;;;;;;;;;6276112;22;19953;-77
2023/02/07 09:26:08;;;;;;;;;;;;;;;;;;6275545;22;19914;-76
2023/02/07 09:28:34;;;;;;;;;;;;;;;;;;6275465;22;20267;-77
2023/02/07 09:31:00;;;;;;;;;;;;;;;;;;6277917;22;19976;-77
2023/02/07 09:33:25;;;;;;;;;;;;;;;;;;6279644;22;19986;-77
2023/02/07 09:35:50;;;;;;;;;;;;;;;;;;6276903;22;19911;-76
2023/02/07 09:38:16;;;;;;;;;;;;;;;;;;6277801;22;19909;-77
2023/02/07 09:40:42;;;;;;;;;;;;;;;;;;6277241;22;20344;-78
2023/02/07 09:43:08;;;;;;;;;;;;;;;;;;6277602;22;19943;-78
2023/02/07 09:45:33;;;;;;;;;;;;;;;;;;6277114;22;19907;-77
2023/02/07 09:47:59;;;;;;;;;;;;;;;;;;6278670;22;19930;-77
2023/02/07 09:50:24;;;;;;;;;;;;;;;;;;6278252;22;19907;-77
2023/02/07 09:52:50;;;;;;;;;;;;;;;;;;6278666;22;19911;-77
2023/02/07 09:55:15;;;;;;;;;;;;;;;;;;6278680;22;19908;-79
2023/02/07 09:57:41;;;;;;;;;;;;;;;;;;6279550;22;20317;-79
2023/02/07 10:00:09;;;;;;;;;;;;;;;;;;6268181;22;19915;-78
2023/02/07 10:02:35;;;;;;;;;;;;;;;;;;6280941;22;19992;-79
2023/02/07 10:05:00;;;;;;;;;;;;;;;;;;6280712;22;19911;-80
2023/02/07 10:07:25;;;;;;;;;;;;;;;;;;6253705;22;19914;-80
2023/02/07 10:09:51;;;;;;;;;;;;;;;;;;6280989;22;19907;-79
2023/02/07 10:12:16;;;;;;;;;;;;;;;;;;6252788;22;19923;-80
2023/02/07 10:14:42;;;;;;;;;;;;;;;;;;6226586;22;19907;-80
2023/02/07 10:17:07;;;;;;;;;;;;;;;;;;6252629;22;20337;-80
2023/02/07 10:19:32;;;;;;;;;;;;;;;;;;6279942;22;19974;-80
2023/02/07 10:21:58;;;;;;;;;;;;;;;;;;6282128;22;19915;-79
2023/02/07 10:24:23;;;;;;;;;;;;;;;;;;6252065;22;20313;-79
2023/02/07 10:26:49;;;;;;;;;;;;;;;;;;6278318;22;19907;-79
2023/02/07 10:29:16;;;;;;;;;;;;;;;;;;6279139;22;19946;-79
2023/02/07 10:31:41;;;;;;;;;;;;;;;;;;6251868;22;19912;-79
2023/02/07 10:34:07;;;;;;;;;;;;;;;;;;6279555;22;19981;-79
2023/02/07 10:36:33;;;;;;;;;;;;;;;;;;6227010;22;19915;-80
2023/02/07 10:38:58;;;;;;;;;;;;;;;;;;6252730;22;19986;-79
2023/02/07 10:41:24;;;;;;;;;;;;;;;;;;6236099;22;19926;-81
2023/02/07 10:43:49;;;;;;;;;;;;;;;;;;6260914;22;19921;-82
2023/02/07 10:46:15;;;;;;;;;;;;;;;;;;6265012;22;19915;-82
2023/02/07 10:48:40;;;;;;;;;;;;;;;;;;6242274;22;19934;-83
2023/02/07 10:51:06;;;;;;;;;;;;;;;;;;6294045;22;19985;-81
2023/02/07 10:53:31;;;;;;;;;;;;;;;;;;6240937;22;19986;-81
2023/02/07 10:55:57;;;;;;;;;;;;;;;;;;6296069;22;19912;-82
2023/02/07 10:58:22;;;;;;;;;;;;;;;;;;6270206;22;19907;-83
2023/02/07 11:00:48;;;;;;;;;;;;;;;;;;6292640;22;19911;-82
2023/02/07 11:03:14;;;;;;;;;;;;;;;;;;6273929;22;19903;-82
2023/02/07 11:05:39;;;;;;;;;;;;;;;;;;6274691;22;19964;-82
2023/02/07 11:08:05;;;;;;;;;;;;;;;;;;6299956;22;19928;-82
2023/02/07 11:10:32;;;;;;;;;;;;;;;;;;6300609;22;19907;-83
2023/02/07 11:12:57;;;;;;;;;;;;;;;;;;6273320;22;19922;-82
2023/02/07 11:15:25;;;;;;;;;;;;;;;;;;6274435;22;19906;-83
2023/02/07 11:17:50;;;;;;;;;;;;;;;;;;6274700;22;19910;-81
2023/02/07 11:20:16;;;;;;;;;;;;;;;;;;6327578;22;19914;-82
2023/02/07 11:22:41;;;;;;;;;;;;;;;;;;6275909;22;20306;-82
2023/02/07 11:25:07;;;;;;;;;;;;;;;;;;6275639;22;19911;-82
2023/02/07 11:27:32;;;;;;;;;;;;;;;;;;6298164;22;19964;-81
2023/02/07 11:29:58;;;;;;;;;;;;;;;;;;6270822;22;19913;-82
2023/02/07 11:32:25;;;;;;;;;;;;;;;;;;6323880;22;19918;-81
2023/02/07 11:34:51;;;;;;;;;;;;;;;;;;6318678;22;19950;-82
2023/02/07 11:37:16;;;;;;;;;;;;;;;;;;6299672;22;19903;-82
2023/02/07 11:39:42;;;;;;;;;;;;;;;;;;6301191;22;19907;-82
2023/02/07 11:42:07;;;;;;;;;;;;;;;;;;6301157;22;19998;-83
2023/02/07 11:44:33;;;;;;;;;;;;;;;;;;6299930;22;19968;-83
2023/02/07 11:46:58;;;;;;;;;;;;;;;;;;6323662;22;19914;-82
2023/02/07 11:49:33;;;;;;;;;;;;;;;;;;6260427;22;19914;-82
2023/02/07 11:52:10;;;;;;;;;;;;;;;;;;6296871;22;19963;-82
2023/02/07 11:54:36;;;;;;;;;;;;;;;;;;6272856;22;19907;-82
2023/02/07 11:57:01;;;;;;;;;;;;;;;;;;6326974;22;19907;-82
2023/02/07 11:59:27;;;;;;;;;;;;;;;;;;6267876;22;19907;-83
2023/02/07 12:01:52;;;;;;;;;;;;;;;;;;6299920;22;20252;-80
2023/02/07 12:04:18;;;;;;;;;;;;;;;;;;6277767;22;19907;-80
2023/02/07 12:06:43;;;;;;;;;;;;;;;;;;6274507;22;20282;-80
2023/02/07 12:09:08;;;;;;;;;;;;;;;;;;6244811;22;19907;-79
2023/02/07 12:11:35;;;;;;;;;;;;;;;;;;6289400;22;19977;-80
2023/02/07 12:14:00;;;;;;;;;;;;;;;;;;6315235;22;19907;-79
2023/02/07 12:16:25;;;;;;;;;;;;;;;;;;6286541;22;20379;-79
2023/02/07 12:18:51;;;;;;;;;;;;;;;;;;6285618;22;19907;-80
2023/02/07 12:21:16;;;;;;;;;;;;;;;;;;6289934;22;19907;-82
2023/02/07 12:23:42;;;;;;;;;;;;;;;;;;6320115;22;19926;-81
2023/02/07 12:26:07;;;;;;;;;;;;;;;;;;6272285;22;20319;-81
2023/02/07 12:28:33;;;;;;;;;;;;;;;;;;6328285;22;19914;-82
2023/02/07 12:30:58;;;;;;;;;;;;;;;;;;6299548;22;19918;-81
2023/02/07 12:33:24;;;;;;;;;;;;;;;;;;6267293;22;19906;-82
2023/02/07 12:35:49;;;;;;;;;;;;;;;;;;6296833;22;20244;-82
2023/02/07 12:38:18;;;;;;;;;;;;;;;;;;6291221;22;19930;-82
2023/02/07 12:40:44;;;;;;;;;;;;;;;;;;6290218;22;19960;-82
2023/02/07 12:43:09;;;;;;;;;;;;;;;;;;6264397;22;20336;-81
2023/02/07 12:45:35;;;;;;;;;;;;;;;;;;6260467;22;19907;-80
2023/02/07 12:48:01;;;;;;;;;;;;;;;;;;6286134;22;19910;-80
2023/02/07 12:50:26;;;;;;;;;;;;;;;;;;6286275;22;20268;-81
2023/02/07 12:52:51;;;;;;;;;;;;;;;;;;6311409;22;19918;-80
2023/02/07 12:55:19;;;;;;;;;;;;;;;;;;6285403;22;20348;-81
2023/02/07 12:57:44;;;;;;;;;;;;;;;;;;6310133;22;19907;-79
2023/02/07 13:00:11;;;;;;;;;;;;;;;;;;6294512;22;20373;-80
2023/02/07 13:02:36;;;;;;;;;;;;;;;;;;6279936;22;19908;-80
2023/02/07 13:05:01;;;;;;;;;;;;;;;;;;6225445;22;19907;-79
2023/02/07 13:07:27;;;;;;;;;;;;;;;;;;6252764;22;20327;-80
2023/02/07 13:09:52;;;;;;;;;;;;;;;;;;6229090;22;19923;-80
2023/02/07 13:12:18;;;;;;;;;;;;;;;;;;6254402;22;19911;-79
2023/02/07 13:14:43;;;;;;;;;;;;;;;;;;6253859;22;19933;-80
2023/02/07 13:17:09;;;;;;;;;;;;;;;;;;6281483;22;19907;-80
2023/02/07 13:19:34;;;;;;;;;;;;;;;;;;6253163;22;19911;-80
2023/02/07 13:22:00;;;;;;;;;;;;;;;;;;6257018;22;19915;-80
2023/02/07 13:24:25;;;;;;;;;;;;;;;;;;6285326;22;20299;-81
2023/02/07 13:26:50;;;;;;;;;;;;;;;;;;6285627;22;20291;-80
2023/02/07 13:29:16;;;;;;;;;;;;;;;;;;6289557;22;20339;-80
2023/02/07 13:31:41;;;;;;;;;;;;;;;;;;6262003;22;19919;-81
2023/02/07 13:34:06;;;;;;;;;;;;;;;;;;6263585;22;19927;-81
2023/02/07 13:36:32;;;;;;;;;;;;;;;;;;6261442;22;19907;-81
2023/02/07 13:38:57;;;;;;;;;;;;;;;;;;6283551;22;19914;-80
2023/02/07 13:41:23;;;;;;;;;;;;;;;;;;6254825;22;20245;-80
2023/02/07 13:43:48;;;;;;;;;;;;;;;;;;6286732;22;19907;-81
2023/02/07 13:46:13;;;;;;;;;;;;;;;;;;6235864;22;19987;-82
2023/02/07 13:48:39;;;;;;;;;;;;;;;;;;6234600;22;20349;-81
2023/02/07 13:51:05;;;;;;;;;;;;;;;;;;6287947;22;19930;-81
2023/02/07 13:53:30;;;;;;;;;;;;;;;;;;6287372;22;20313;-81
2023/02/07 13:55:56;;;;;;;;;;;;;;;;;;6255736;22;19907;-79
2023/02/07 14:01:05;;;;;;;;;;;;;;;;;;6288799;22;19911;-79
2023/02/07 14:03:31;;;;;;;;;;;;;;;;;;6285867;22;19997;-81
2023/02/07 14:05:56;;;;;;;;;;;;;;;;;;6260868;22;19907;-82
2023/02/07 14:08:23;;;;;;;;;;;;;;;;;;6286511;22;19907;-81
2023/02/07 14:10:49;;;;;;;;;;;;;;;;;;6289653;22;19907;-81
2023/02/07 14:13:14;;;;;;;;;;;;;;;;;;6293807;22;19911;-82
2023/02/07 14:15:42;;;;;;;;;;;;;;;;;;6293835;22;19914;-82
2023/02/07 14:18:08;;;;;;;;;;;;;;;;;;6295593;22;19912;-82
2023/02/07 14:20:36;;;;;;;;;;;;;;;;;;6293753;22;19907;-82
2023/02/07 14:23:01;;;;;;;;;;;;;;;;;;6296099;22;19907;-82
2023/02/07 14:25:27;;;;;;;;;;;;;;;;;;6296431;22;20363;-81
2023/02/07 14:27:52;;;;;;;;;;;;;;;;;;6269536;22;19914;-81
2023/02/07 14:30:18;;;;;;;;;;;;;;;;;;6295530;22;20329;-82
2023/02/07 14:32:44;;;;;;;;;;;;;;;;;;6295658;22;19911;-81
2023/02/07 14:35:13;;;;;;;;;;;;;;;;;;6298210;22;19907;-82
2023/02/07 14:37:39;;;;;;;;;;;;;;;;;;6297987;22;19911;-82
2023/02/07 14:40:04;;;;;;;;;;;;;;;;;;6262671;22;19907;-81
2023/02/07 14:42:30;;;;;;;;;;;;;;;;;;6291056;22;19931;-81
2023/02/07 14:44:55;;;;;;;;;;;;;;;;;;6289072;22;19957;-81
2023/02/07 14:47:20;;;;;;;;;;;;;;;;;;6288494;22;19907;-81
2023/02/07 14:49:46;;;;;;;;;;;;;;;;;;6288537;22;19951;-81
2023/02/07 14:52:11;;;;;;;;;;;;;;;;;;6291153;22;19933;-81
2023/02/07 14:54:37;;;;;;;;;;;;;;;;;;6287781;22;19933;-81
2023/02/07 14:57:02;;;;;;;;;;;;;;;;;;6286521;22;19907;-80
2023/02/07 14:59:28;;;;;;;;;;;;;;;;;;6280476;22;19911;-81
2023/02/07 15:01:53;;;;;;;;;;;;;;;;;;6261697;22;19982;-81
2023/02/07 15:04:19;;;;;;;;;;;;;;;;;;6259969;22;19907;-82
2023/02/07 15:06:44;;;;;;;;;;;;;;;;;;6259029;22;20358;-80
2023/02/07 15:09:09;;;;;;;;;;;;;;;;;;6286962;22;19907;-81
2023/02/07 15:11:35;;;;;;;;;;;;;;;;;;6284090;22;19994;-80
2023/02/07 15:14:01;;;;;;;;;;;;;;;;;;6283723;22;19913;-81
2023/02/07 15:16:27;;;;;;;;;;;;;;;;;;6256476;22;19914;-81
2023/02/07 15:18:52;;;;;;;;;;;;;;;;;;6257751;22;19978;-81
2023/02/07 15:21:18;;;;;;;;;;;;;;;;;;6285950;22;19907;-81
2023/02/07 15:23:43;;;;;;;;;;;;;;;;;;6260426;22;20369;-81
2023/02/07 15:26:08;;;;;;;;;;;;;;;;;;6209001;22;19923;-82
2023/02/07 15:28:34;;;;;;;;;;;;;;;;;;6286323;22;19907;-81
2023/02/07 15:30:59;;;;;;;;;;;;;;;;;;6234628;22;19907;-81
2023/02/07 15:33:25;;;;;;;;;;;;;;;;;;6207382;22;19930;-82
2023/02/07 15:35:50;;;;;;;;;;;;;;;;;;6258097;22;19907;-82
2023/02/07 15:38:16;;;;;;;;;;;;;;;;;;6259590;22;19915;-82
2023/02/07 15:40:41;;;;;;;;;;;;;;;;;;6260430;22;19907;-81
2023/02/07 15:43:07;;;;;;;;;;;;;;;;;;6235025;22;19911;-81
2023/02/07 15:45:32;;;;;;;;;;;;;;;;;;6236715;22;20329;-81
2023/02/07 15:47:58;;;;;;;;;;;;;;;;;;6290202;22;20324;-82
2023/02/07 15:50:23;;;;;;;;;;;;;;;;;;6290851;22;19907;-81
2023/02/07 15:52:49;;;;;;;;;;;;;;;;;;6268997;22;19950;-82
2023/02/07 15:55:16;;;;;;;;;;;;;;;;;;6294928;22;19914;-82
2023/02/07 15:57:41;;;;;;;;;;;;;;;;;;6269254;22;19953;-82
2023/02/07 16:00:07;;;;;;;;;;;;;;;;;;6277965;22;20271;-82
2023/02/07 16:02:38;;;;;;;;;;;;;;;;;;6322162;22;19903;-82
2023/02/07 16:05:04;;;;;;;;;;;;;;;;;;6297100;22;19914;-82
2023/02/07 16:07:29;;;;;;;;;;;;;;;;;;6325480;22;19903;-82
2023/02/07 16:09:56;;;;;;;;;;;;;;;;;;6298015;22;19907;-82
2023/02/07 16:12:21;;;;;;;;;;;;;;;;;;6325282;22;19911;-83
2023/02/07 16:14:47;;;;;;;;;;;;;;;;;;6326549;22;19918;-83
2023/02/07 16:17:15;;;;;;;;;;;;;;;;;;6296798;22;19907;-82
2023/02/07 16:19:41;;;;;;;;;;;;;;;;;;6296919;22;19930;-83
2023/02/07 16:22:07;;;;;;;;;;;;;;;;;;6325462;22;20478;-82
2023/02/07 16:24:32;;;;;;;;;;;;;;;;;;6272781;22;19954;-82
2023/02/07 16:26:58;;;;;;;;;;;;;;;;;;6270789;22;19966;-83
2023/02/07 16:29:24;;;;;;;;;;;;;;;;;;6297234;22;19907;-82
2023/02/07 16:31:50;;;;;;;;;;;;;;;;;;6325839;22;19911;-82
2023/02/07 16:34:15;;;;;;;;;;;;;;;;;;6297567;22;19913;-81
2023/02/07 16:36:41;;;;;;;;;;;;;;;;;;6266542;22;19947;-82